Hlavní strana
METAR-TAF:

METAR-TAF

Letiště :

Keokuk Municipal Airport

Keokuk, Iowa, Spojené státy americké

zeměpisná šířka: 40-28N, zeměpisná délka: 091-26W, výška: 205 m

Aktuální stav počasí

Zpráva byla vytvořena před 13 minutami, v 11:35 UTC
Bezvětří
Teplota 0°C
Vlhkost vzduchu 100%
Tlak 1010 hPa
Viditelnost: 8.0 km
Zataženo ve výšce 300 ft
(slabý) neznámé

METAR: KEOK 241135Z AUTO 00000KT 5SM -UP OVC003 00/00 A2982 RMK AO2

Čas: 05:48 (11:48 UTC)


TAF: chybějící

Stav a předpovědi počasí z více než 4 000 letišť (zprávy METAR a TAF).

Červené a žluté tečky na mapě představují dostupné meteorologické stanice.

Když kurzor umístíte na tečku, zobrazí se název stanice.

Pak kliknutím zobrazíte stav a předpověď počasí.

Chcete-li změnit mapu, kliknutím na zelené tlačítko se znaménkem +mapu přiblížíte, kliknutím na zelené tlačítko se znaménkem – mapu oddálíte a kliknutím na zelené šipky přejdete na sousední mapy.


METAR-TAF: